createdAt,value
2019-02-12T00:00:17.381Z,100449.78
2019-02-12T00:02:45.647Z,100437.50
2019-02-12T00:05:12.660Z,100441.28
2019-02-12T00:07:39.112Z,100438.52
2019-02-12T00:10:05.645Z,100439.29
2019-02-12T00:12:32.248Z,100444.91
2019-02-12T00:14:58.866Z,100448.53
2019-02-12T00:17:25.238Z,100454.16
2019-02-12T00:19:51.572Z,100463.34
2019-02-12T00:22:18.127Z,100445.98
2019-02-12T00:24:44.728Z,100461.30
2019-02-12T00:27:11.302Z,100454.79
2019-02-12T00:29:37.634Z,100459.25
2019-02-12T00:32:03.980Z,100460.48
2019-02-12T00:34:30.308Z,100456.52
2019-02-12T00:36:56.916Z,100464.83
2019-02-12T00:39:23.233Z,100462.83
2019-02-12T00:41:49.596Z,100439.19
2019-02-12T00:44:16.915Z,100450.55
2019-02-12T00:46:43.288Z,100460.30
2019-02-12T00:49:09.835Z,100458.94
2019-02-12T00:51:36.160Z,100472.23
2019-02-12T00:54:02.764Z,100474.34
2019-02-12T00:56:29.359Z,100489.30
2019-02-12T00:58:55.686Z,100486.31
2019-02-12T01:01:22.039Z,100512.33
2019-02-12T01:03:48.361Z,100512.91
2019-02-12T01:06:14.680Z,100505.61
2019-02-12T01:08:42.011Z,100506.50
2019-02-12T01:11:08.560Z,100511.52
2019-02-12T01:13:36.166Z,100501.45
2019-02-12T01:16:02.566Z,100512.20
2019-02-12T01:18:29.180Z,100510.58
2019-02-12T01:20:55.753Z,100496.91
2019-02-12T01:23:22.308Z,100505.03
2019-02-12T01:25:48.654Z,100505.70
2019-02-12T01:28:14.999Z,100499.03
2019-02-12T01:30:41.358Z,100494.73
2019-02-12T01:33:07.651Z,100499.72
2019-02-12T01:35:34.270Z,100506.86
2019-02-12T01:38:00.563Z,100513.52
2019-02-12T01:40:26.930Z,100515.98
2019-02-12T01:42:53.257Z,100513.12
2019-02-12T01:45:19.607Z,100508.05
2019-02-12T01:47:46.264Z,100510.91
2019-02-12T01:50:12.734Z,100504.98
2019-02-12T01:52:39.064Z,100522.40
2019-02-12T01:55:05.458Z,100504.72
2019-02-12T01:57:32.059Z,100506.37
2019-02-12T01:59:58.353Z,100509.38
2019-02-12T02:02:24.705Z,100509.11
2019-02-12T02:04:51.255Z,100505.41
2019-02-12T02:07:17.841Z,100497.70
2019-02-12T02:09:44.162Z,100501.36
2019-02-12T02:12:10.618Z,100510.32
2019-02-12T02:14:37.224Z,100522.90
2019-02-12T02:17:03.523Z,100519.34
2019-02-12T02:19:29.862Z,100520.00
2019-02-12T02:21:56.478Z,100518.92
2019-02-12T02:24:22.819Z,100528.78
2019-02-12T02:26:49.431Z,100537.70
2019-02-12T02:29:16.082Z,100528.17
2019-02-12T02:31:42.677Z,100540.40
2019-02-12T02:34:09.032Z,100538.66
2019-02-12T02:36:35.358Z,100532.72
2019-02-12T02:39:01.793Z,100564.89
2019-02-12T02:41:30.043Z,100547.11
2019-02-12T02:43:56.357Z,100561.42
2019-02-12T02:46:22.713Z,100561.64
2019-02-12T02:48:49.278Z,100560.67
2019-02-12T02:51:15.635Z,100554.27
2019-02-12T02:53:41.957Z,100553.14
2019-02-12T02:56:08.607Z,100565.16
2019-02-12T02:58:34.922Z,100555.84
2019-02-12T03:01:01.228Z,100560.58
2019-02-12T03:03:27.784Z,100557.98
2019-02-12T03:05:54.378Z,100557.07
2019-02-12T03:08:20.712Z,100546.33
2019-02-12T03:10:47.046Z,100548.64
2019-02-12T03:13:13.370Z,100557.10
2019-02-12T03:15:39.693Z,100552.61
2019-02-12T03:18:06.338Z,100557.18
2019-02-12T03:20:32.939Z,100585.42
2019-02-12T03:22:59.586Z,100566.06
2019-02-12T03:25:25.937Z,100576.47
2019-02-12T03:27:52.252Z,100574.30
2019-02-12T03:30:18.595Z,100565.97
2019-02-12T03:32:45.191Z,100568.06
2019-02-12T03:35:11.612Z,100586.42
2019-02-12T03:37:38.961Z,100586.88
2019-02-12T03:40:09.241Z,100596.98
2019-02-12T03:42:35.887Z,100598.73
2019-02-12T03:45:05.582Z,100598.69
2019-02-12T03:47:32.239Z,100600.47
2019-02-12T03:49:58.812Z,100592.58
2019-02-12T03:52:25.205Z,100608.81
2019-02-12T03:54:51.775Z,100610.47
2019-02-12T03:57:18.245Z,100608.45
2019-02-12T03:59:44.569Z,100625.44
2019-02-12T04:02:10.928Z,100608.29
2019-02-12T04:04:37.246Z,100590.31
2019-02-12T04:07:03.867Z,100602.03
2019-02-12T04:09:30.479Z,100597.75
2019-02-12T04:11:56.774Z,100598.23
2019-02-12T04:14:23.109Z,100598.87
2019-02-12T04:16:49.434Z,100600.63
2019-02-12T04:19:15.871Z,100611.77
2019-02-12T04:21:42.237Z,100621.56
2019-02-12T04:24:08.566Z,100618.77
2019-02-12T04:26:34.864Z,100624.64
2019-02-12T04:29:01.291Z,100622.95
2019-02-12T04:31:27.708Z,100622.06
2019-02-12T04:33:54.038Z,100635.36
2019-02-12T04:36:20.353Z,100649.00
2019-02-12T04:38:46.665Z,100649.15
2019-02-12T04:41:12.986Z,100648.81
2019-02-12T04:43:39.335Z,100645.22
2019-02-12T04:46:05.659Z,100645.61
2019-02-12T04:48:32.296Z,100642.45
2019-02-12T04:50:58.922Z,100645.12
2019-02-12T04:53:25.557Z,100644.09
2019-02-12T04:55:51.957Z,100638.77
2019-02-12T04:58:18.292Z,100640.98
2019-02-12T05:00:44.659Z,100634.70
2019-02-12T05:03:11.006Z,100636.52
2019-02-12T05:05:37.617Z,100637.58
2019-02-12T05:08:04.215Z,100629.57
2019-02-12T05:10:39.427Z,100623.69
2019-02-12T05:13:05.826Z,100631.22
2019-02-12T05:15:32.169Z,100637.34
2019-02-12T05:17:58.523Z,100623.91
2019-02-12T05:20:24.862Z,100639.97
2019-02-12T05:22:51.485Z,100613.05
2019-02-12T05:25:17.873Z,100617.22
2019-02-12T05:27:44.358Z,100625.88
2019-02-12T05:30:12.790Z,100634.58
2019-02-12T05:32:39.125Z,100637.88
2019-02-12T05:35:05.933Z,100649.67
2019-02-12T05:37:32.540Z,100632.89
2019-02-12T05:39:59.961Z,100636.84
2019-02-12T05:42:26.572Z,100632.64
2019-02-12T05:44:52.928Z,100631.31
2019-02-12T05:47:19.272Z,100651.38
2019-02-12T05:49:45.620Z,100647.73
2019-02-12T05:52:11.944Z,100660.16
2019-02-12T05:54:38.302Z,100662.52
2019-02-12T05:57:04.885Z,100664.92
2019-02-12T05:59:31.282Z,100661.37
2019-02-12T06:01:57.642Z,100665.38
2019-02-12T06:04:23.987Z,100666.19
2019-02-12T06:06:50.376Z,100672.47
2019-02-12T06:09:17.069Z,100686.34
2019-02-12T06:11:43.534Z,100679.17
2019-02-12T06:14:09.900Z,100681.75
2019-02-12T06:16:36.237Z,100670.14
2019-02-12T06:19:02.605Z,100680.81
2019-02-12T06:21:28.908Z,100677.69
2019-02-12T06:23:55.298Z,100687.71
2019-02-12T06:26:22.595Z,100671.63
2019-02-12T06:28:48.953Z,100682.27
2019-02-12T06:31:15.300Z,100696.59
2019-02-12T06:33:41.925Z,100696.41
2019-02-12T06:36:08.241Z,100695.55
2019-02-12T06:38:34.879Z,100705.77
2019-02-12T06:41:01.532Z,100710.34
2019-02-12T06:43:27.904Z,100710.45
2019-02-12T06:45:54.250Z,100701.78
2019-02-12T06:48:20.572Z,100703.64
2019-02-12T06:50:47.143Z,100704.13
2019-02-12T06:53:13.717Z,100695.92
2019-02-12T06:55:40.274Z,100706.00
2019-02-12T06:58:06.870Z,100714.20
2019-02-12T07:00:33.208Z,100714.34
2019-02-12T07:03:14.716Z,100737.41
2019-02-12T07:06:04.608Z,100727.97
2019-02-12T07:08:59.970Z,100728.70
2019-02-12T07:11:41.318Z,100721.18
2019-02-12T07:14:13.414Z,100743.02
2019-02-12T07:17:12.249Z,100735.61
2019-02-12T07:20:02.112Z,100750.78
2019-02-12T07:22:56.363Z,100745.30
2019-02-12T07:25:49.391Z,100753.39
2019-02-12T07:28:59.867Z,100770.73
2019-02-12T07:31:44.191Z,100790.33
2019-02-12T07:34:38.909Z,100794.13
2019-02-12T07:37:13.987Z,100792.15
2019-02-12T07:40:21.316Z,100790.95
2019-02-12T07:43:02.405Z,100788.27
2019-02-12T07:45:37.202Z,100790.71
2019-02-12T07:48:36.746Z,100802.39
2019-02-12T07:51:34.587Z,100803.53
2019-02-12T07:54:12.291Z,100808.89
2019-02-12T07:56:59.744Z,100826.91
2019-02-12T07:59:46.677Z,100825.77
2019-02-12T08:02:30.795Z,100819.48
2019-02-12T08:05:27.257Z,100830.75
2019-02-12T08:08:31.371Z,100835.47
2019-02-12T08:11:06.165Z,100840.67
2019-02-12T08:14:15.830Z,100845.73
2019-02-12T08:17:05.740Z,100846.62
2019-02-12T08:19:55.066Z,100848.45
2019-02-12T08:22:32.373Z,100853.08
2019-02-12T08:25:34.391Z,100846.00
2019-02-12T08:28:24.390Z,100839.89
2019-02-12T08:31:05.019Z,100833.70
2019-02-12T08:33:37.033Z,100856.27
2019-02-12T08:36:20.225Z,100843.25
2019-02-12T08:39:04.050Z,100847.06
2019-02-12T08:41:40.178Z,100849.91
2019-02-12T08:44:38.660Z,100861.02
2019-02-12T08:47:37.216Z,100858.95
2019-02-12T08:50:20.087Z,100865.00
2019-02-12T08:53:32.989Z,100866.58
2019-02-12T08:56:33.465Z,100869.09
2019-02-12T08:59:13.898Z,100868.44
2019-02-12T09:01:48.688Z,100868.75
2019-02-12T09:04:38.832Z,100877.56
2019-02-12T09:07:28.813Z,100882.03
2019-02-12T09:10:25.296Z,100873.05
2019-02-12T09:13:00.614Z,100876.66
2019-02-12T09:15:44.552Z,100893.12
2019-02-12T09:18:36.039Z,100894.91
2019-02-12T09:21:13.959Z,100882.78
2019-02-12T09:24:10.221Z,100890.13
2019-02-12T09:26:44.830Z,100905.91
2019-02-12T09:29:37.397Z,100908.70
2019-02-12T09:32:38.074Z,100899.75
2019-02-12T09:35:36.965Z,100899.57
2019-02-12T09:38:43.545Z,100896.05
2019-02-12T09:41:31.409Z,100920.45
2019-02-12T09:44:18.313Z,100921.77
2019-02-12T09:47:41.098Z,100929.19
2019-02-12T09:50:35.575Z,100947.84
2019-02-12T09:53:35.090Z,100939.80
2019-02-12T09:56:26.412Z,100943.88
2019-02-12T09:59:24.258Z,100943.70
2019-02-12T10:02:23.504Z,100948.22
2019-02-12T10:05:31.300Z,100938.42
2019-02-12T10:08:34.311Z,100957.25
2019-02-12T10:11:30.099Z,100953.39
2019-02-12T10:14:20.427Z,100964.05
2019-02-12T10:17:14.099Z,100970.92
2019-02-12T10:19:46.137Z,100947.06
2019-02-12T10:22:39.132Z,100969.98
2019-02-12T10:25:14.151Z,100959.70
2019-02-12T10:28:08.628Z,100960.54
2019-02-12T10:30:49.266Z,100969.64
2019-02-12T10:33:16.065Z,100976.04
2019-02-12T10:35:42.438Z,100982.17
2019-02-12T10:38:08.770Z,100977.58
2019-02-12T10:40:35.115Z,100979.72
2019-02-12T10:43:01.726Z,100968.11
2019-02-12T10:45:28.311Z,100962.53
2019-02-12T10:47:54.824Z,100978.34
2019-02-12T10:50:21.454Z,100964.97
2019-02-12T10:52:48.036Z,100975.20
2019-02-12T10:55:14.488Z,100972.06
2019-02-12T10:57:41.085Z,100978.31
2019-02-12T11:00:13.900Z,100977.20
2019-02-12T11:02:40.441Z,100986.05
2019-02-12T11:05:07.178Z,100988.64
2019-02-12T11:07:33.773Z,100977.83
2019-02-12T11:10:00.120Z,100970.53
2019-02-12T11:12:26.532Z,100960.50
2019-02-12T11:14:52.844Z,100991.54
2019-02-12T11:17:19.440Z,100975.47
2019-02-12T11:19:46.023Z,100979.58
2019-02-12T11:22:12.330Z,100962.84
2019-02-12T11:24:39.823Z,100985.01
2019-02-12T11:27:06.357Z,100976.89
2019-02-12T11:29:32.985Z,100996.17
2019-02-12T11:31:59.544Z,100982.91
2019-02-12T11:34:26.167Z,100993.05
2019-02-12T11:36:52.535Z,100990.91
2019-02-12T11:39:18.932Z,100989.60
2019-02-12T11:41:45.221Z,100987.83
2019-02-12T11:44:11.541Z,100988.58
2019-02-12T11:46:38.172Z,100983.58
2019-02-12T11:49:04.503Z,100990.39
2019-02-12T11:51:31.100Z,100990.89
2019-02-12T11:53:57.417Z,101010.55
2019-02-12T11:56:23.925Z,101051.48
2019-02-12T11:58:50.503Z,101041.28
2019-02-12T12:01:18.131Z,101044.58
2019-02-12T12:03:44.741Z,101055.13
2019-02-12T12:06:11.310Z,101065.51
2019-02-12T12:08:37.664Z,101055.64
2019-02-12T12:11:04.238Z,101053.64
2019-02-12T12:13:31.846Z,101048.02
2019-02-12T12:15:58.550Z,101043.39
2019-02-12T12:18:26.150Z,101043.67
2019-02-12T12:20:52.717Z,101040.91
2019-02-12T12:23:19.014Z,101041.08
2019-02-12T12:25:45.625Z,101034.32
2019-02-12T12:28:11.988Z,101030.90
2019-02-12T12:30:39.418Z,101028.58
2019-02-12T12:33:05.938Z,101029.08
2019-02-12T12:35:32.330Z,101039.17
2019-02-12T12:37:58.927Z,101035.48
2019-02-12T12:40:25.321Z,101037.95
2019-02-12T12:42:51.640Z,101039.78
2019-02-12T12:45:18.242Z,101046.02
2019-02-12T12:47:44.603Z,101052.05
2019-02-12T12:50:12.100Z,101062.22
2019-02-12T12:52:38.495Z,101054.88
2019-02-12T12:55:07.379Z,101057.87
2019-02-12T12:57:41.359Z,101067.43
2019-02-12T13:00:06.476Z,101069.58
2019-02-12T13:02:34.623Z,101071.05
2019-02-12T13:05:02.688Z,101071.27
2019-02-12T13:07:29.258Z,101077.75
2019-02-12T13:09:55.861Z,101074.27
2019-02-12T13:12:22.433Z,101078.33
2019-02-12T13:14:49.072Z,101081.48
2019-02-12T13:17:15.450Z,101069.97
2019-02-12T13:19:41.773Z,101074.86
2019-02-12T13:22:08.406Z,101071.01
2019-02-12T13:24:34.997Z,101078.26
2019-02-12T13:27:01.370Z,101074.44
2019-02-12T13:29:27.691Z,101078.45
2019-02-12T13:31:54.283Z,101077.87
2019-02-12T13:34:20.632Z,101070.95
2019-02-12T13:36:47.146Z,101077.41
2019-02-12T13:39:13.473Z,101078.19
2019-02-12T13:41:40.090Z,101081.59
2019-02-12T13:44:06.676Z,101091.39
2019-02-12T13:46:33.032Z,101056.92
2019-02-12T13:48:59.417Z,101090.59
2019-02-12T13:51:25.799Z,101098.52
2019-02-12T13:53:52.208Z,101102.98
2019-02-12T13:56:18.660Z,101100.14
2019-02-12T13:58:45.338Z,101107.86
2019-02-12T14:01:11.719Z,101119.97
2019-02-12T14:03:38.249Z,101112.80
2019-02-12T14:06:04.628Z,101122.42
2019-02-12T14:08:31.296Z,101127.73
2019-02-12T14:10:57.607Z,101129.30
2019-02-12T14:13:24.253Z,101140.01
2019-02-12T14:15:50.876Z,101137.78
2019-02-12T14:18:17.518Z,101136.61
2019-02-12T14:20:44.078Z,101134.28
2019-02-12T14:23:10.680Z,101137.81
2019-02-12T14:25:37.315Z,101142.32
2019-02-12T14:28:04.009Z,101144.83
2019-02-12T14:30:30.366Z,101150.80
2019-02-12T14:32:57.032Z,101155.10
2019-02-12T14:35:23.371Z,101152.47
2019-02-12T14:37:49.969Z,101155.06
2019-02-12T14:40:16.573Z,101157.79
2019-02-12T14:42:43.201Z,101146.98
2019-02-12T14:45:17.225Z,101153.98
2019-02-12T14:47:43.874Z,101147.19
2019-02-12T14:50:19.222Z,101149.34
2019-02-12T14:52:45.989Z,101155.05
2019-02-12T14:55:12.707Z,101160.69
2019-02-12T14:57:39.064Z,101155.63
2019-02-12T15:00:12.505Z,101160.45
2019-02-12T15:02:39.070Z,101164.46
2019-02-12T15:05:06.530Z,101163.48
2019-02-12T15:07:32.853Z,101174.70
2019-02-12T15:09:59.464Z,101173.61
2019-02-12T15:12:25.778Z,101171.98
2019-02-12T15:14:52.127Z,101175.19
2019-02-12T15:17:18.469Z,101185.81
2019-02-12T15:19:45.094Z,101180.75
2019-02-12T15:22:11.438Z,101188.05
2019-02-12T15:24:38.030Z,101181.27
2019-02-12T15:27:04.564Z,101184.86
2019-02-12T15:29:31.023Z,101196.34
2019-02-12T15:31:57.405Z,101199.89
2019-02-12T15:34:24.108Z,101211.47
2019-02-12T15:36:50.484Z,101208.96
2019-02-12T15:39:17.068Z,101215.16
2019-02-12T15:41:43.413Z,101217.95
2019-02-12T15:44:09.783Z,101225.06
2019-02-12T15:46:36.372Z,101225.11
2019-02-12T15:49:03.052Z,101223.89
2019-02-12T15:51:29.414Z,101223.09
2019-02-12T15:53:55.756Z,101228.27
2019-02-12T15:56:22.349Z,101231.86
2019-02-12T15:58:49.681Z,101234.78
2019-02-12T16:01:16.528Z,101229.95
2019-02-12T16:03:43.166Z,101233.78
2019-02-12T16:06:09.491Z,101231.72
2019-02-12T16:08:35.850Z,101227.59
2019-02-12T16:11:02.182Z,101231.68
2019-02-12T16:13:29.587Z,101234.33
2019-02-12T16:15:56.176Z,101242.47
2019-02-12T16:18:23.003Z,101240.52
2019-02-12T16:20:50.876Z,101240.25
2019-02-12T16:23:17.382Z,101253.64
2019-02-12T16:25:44.036Z,101248.45
2019-02-12T16:28:10.619Z,101257.81
2019-02-12T16:30:37.233Z,101263.43
2019-02-12T16:33:03.819Z,101268.63
2019-02-12T16:35:30.433Z,101263.44
2019-02-12T16:37:56.769Z,101275.98
2019-02-12T16:40:23.449Z,101281.34
2019-02-12T16:42:50.112Z,101283.36
2019-02-12T16:45:28.294Z,101287.15
2019-02-12T16:47:54.640Z,101290.23
2019-02-12T16:50:21.231Z,101289.98
2019-02-12T16:52:47.825Z,101299.48
2019-02-12T16:55:14.554Z,101294.05
2019-02-12T16:57:41.183Z,101301.94
2019-02-12T17:00:14.183Z,101298.77
2019-02-12T17:02:40.757Z,101294.51
2019-02-12T17:05:10.433Z,101291.53
2019-02-12T17:07:36.892Z,101286.85
2019-02-12T17:10:07.617Z,101293.28
2019-02-12T17:12:34.015Z,101290.30
2019-02-12T17:15:00.686Z,101297.85
2019-02-12T17:17:27.356Z,101303.25
2019-02-12T17:19:53.975Z,101303.42
2019-02-12T17:22:20.450Z,101305.30
2019-02-12T17:24:47.022Z,101307.28
2019-02-12T17:27:13.720Z,101317.50
2019-02-12T17:29:40.440Z,101314.20
2019-02-12T17:32:07.107Z,101320.69
2019-02-12T17:34:34.823Z,101314.81
2019-02-12T17:37:01.183Z,101321.27
2019-02-12T17:39:27.534Z,101328.69
2019-02-12T17:41:53.901Z,101325.27
2019-02-12T17:44:20.484Z,101324.39
2019-02-12T17:46:47.158Z,101329.42
2019-02-12T17:49:13.808Z,101338.21
2019-02-12T17:51:40.543Z,101336.95
2019-02-12T17:54:06.912Z,101340.97
2019-02-12T17:56:33.576Z,101344.98
2019-02-12T17:59:00.221Z,101349.17
2019-02-12T18:01:26.850Z,101348.41
2019-02-12T18:03:53.506Z,101356.19
2019-02-12T18:06:19.875Z,101362.42
2019-02-12T18:08:46.528Z,101358.98
2019-02-12T18:11:12.987Z,101357.55
2019-02-12T18:13:40.411Z,101369.37
2019-02-12T18:16:06.883Z,101365.87
2019-02-12T18:18:33.226Z,101365.74
2019-02-12T18:20:59.618Z,101369.55
2019-02-12T18:23:25.967Z,101369.83
2019-02-12T18:25:52.602Z,101373.53
2019-02-12T18:28:19.164Z,101375.75
2019-02-12T18:30:45.786Z,101379.83
2019-02-12T18:33:12.430Z,101388.92
2019-02-12T18:35:40.372Z,101379.77
2019-02-12T18:38:08.392Z,101383.97
2019-02-12T18:40:34.709Z,101390.12
2019-02-12T18:43:01.303Z,101389.58
2019-02-12T18:45:27.896Z,101388.20
2019-02-12T18:47:54.484Z,101383.92
2019-02-12T18:50:20.856Z,101388.95
2019-02-12T18:52:47.301Z,101397.73
2019-02-12T18:55:15.507Z,101399.91
2019-02-12T18:57:42.528Z,101405.70
2019-02-12T19:00:13.065Z,101407.95
2019-02-12T19:02:40.186Z,101397.53
2019-02-12T19:05:09.092Z,101409.73
2019-02-12T19:07:36.043Z,101404.03
2019-02-12T19:10:07.589Z,101404.16
2019-02-12T19:12:34.565Z,101396.43
2019-02-12T19:15:01.046Z,101390.44
2019-02-12T19:17:27.631Z,101393.86
2019-02-12T19:19:54.244Z,101392.84
2019-02-12T19:22:20.917Z,101395.21
2019-02-12T19:24:47.388Z,101398.02
2019-02-12T19:27:13.718Z,101394.09
2019-02-12T19:29:40.129Z,101393.27
2019-02-12T19:32:06.467Z,101395.45
2019-02-12T19:34:32.852Z,101409.12
2019-02-12T19:36:59.213Z,101402.47
2019-02-12T19:39:25.681Z,101403.32
2019-02-12T19:41:52.392Z,101415.91
2019-02-12T19:44:19.022Z,101412.08
2019-02-12T19:46:45.471Z,101415.80
2019-02-12T19:49:12.042Z,101418.16
2019-02-12T19:51:38.387Z,101413.75
2019-02-12T19:54:04.884Z,101414.91
2019-02-12T19:56:31.571Z,101416.24
2019-02-12T19:58:58.015Z,101418.84
2019-02-12T20:01:24.475Z,101428.34
2019-02-12T20:03:51.156Z,101420.69
2019-02-12T20:06:17.814Z,101420.30
2019-02-12T20:08:44.208Z,101416.56
2019-02-12T20:11:10.612Z,101421.31
2019-02-12T20:13:37.281Z,101427.30
2019-02-12T20:16:03.748Z,101427.31
2019-02-12T20:18:31.407Z,101427.61
2019-02-12T20:20:57.832Z,101416.63
2019-02-12T20:23:24.701Z,101421.34
2019-02-12T20:25:52.166Z,101418.93
2019-02-12T20:28:18.954Z,101423.52
2019-02-12T20:30:45.708Z,101422.56
2019-02-12T20:33:12.121Z,101429.89
2019-02-12T20:35:38.726Z,101427.05
2019-02-12T20:38:05.149Z,101425.59
2019-02-12T20:40:31.881Z,101427.46
2019-02-12T20:42:58.344Z,101418.18
2019-02-12T20:45:24.728Z,101416.94
2019-02-12T20:47:51.270Z,101426.00
2019-02-12T20:50:19.910Z,101421.92
2019-02-12T20:52:46.590Z,101428.31
2019-02-12T20:55:13.032Z,101434.17
2019-02-12T20:57:39.378Z,101423.69
2019-02-12T21:00:12.578Z,101427.84
2019-02-12T21:02:39.009Z,101424.35
2019-02-12T21:05:09.417Z,101420.23
2019-02-12T21:07:36.064Z,101419.67
2019-02-12T21:10:08.711Z,101427.39
2019-02-12T21:12:35.412Z,101428.31
2019-02-12T21:15:04.821Z,101424.86
2019-02-12T21:17:31.554Z,101421.28
2019-02-12T21:19:58.957Z,101422.98
2019-02-12T21:22:25.812Z,101421.89
2019-02-12T21:24:52.607Z,101422.52
2019-02-12T21:27:23.593Z,101431.45
2019-02-12T21:29:47.987Z,101429.55
2019-02-12T21:32:14.640Z,101431.51
2019-02-12T21:34:41.480Z,101431.13
2019-02-12T21:37:07.779Z,101433.22
2019-02-12T21:39:35.016Z,101436.77
2019-02-12T21:42:01.325Z,101442.98
2019-02-12T21:44:30.773Z,101445.91
2019-02-12T21:46:57.991Z,101446.14
2019-02-12T21:49:24.582Z,101446.95
2019-02-12T21:51:51.161Z,101450.05
2019-02-12T21:54:18.268Z,101442.40
2019-02-12T21:56:46.555Z,101444.43
2019-02-12T21:59:12.962Z,101448.30
2019-02-12T22:01:39.838Z,101451.39
2019-02-12T22:04:06.481Z,101449.89
2019-02-12T22:06:33.150Z,101447.23
2019-02-12T22:08:59.785Z,101452.40
2019-02-12T22:11:29.835Z,101453.67
2019-02-12T22:13:56.445Z,101448.06
2019-02-12T22:16:23.904Z,101452.55
2019-02-12T22:18:50.238Z,101447.09
2019-02-12T22:21:17.049Z,101445.48
2019-02-12T22:23:43.377Z,101446.64
2019-02-12T22:26:09.765Z,101451.34
2019-02-12T22:28:36.063Z,101447.37
2019-02-12T22:31:02.663Z,101450.70
2019-02-12T22:33:29.047Z,101449.22
2019-02-12T22:35:55.618Z,101457.92
2019-02-12T22:38:21.911Z,101456.73
2019-02-12T22:40:48.221Z,101450.86
2019-02-12T22:43:14.797Z,101456.19
2019-02-12T22:45:41.162Z,101458.34
2019-02-12T22:48:07.467Z,101465.56
2019-02-12T22:50:34.037Z,101467.02
2019-02-12T22:53:00.344Z,101466.16
2019-02-12T22:55:26.921Z,101472.17
2019-02-12T22:57:53.320Z,101472.90
2019-02-12T23:00:27.298Z,101474.05
2019-02-12T23:02:55.605Z,101465.66
2019-02-12T23:05:22.278Z,101472.62
2019-02-12T23:07:48.735Z,101476.33
2019-02-12T23:10:15.382Z,101478.54
2019-02-12T23:12:41.934Z,101476.77
2019-02-12T23:15:08.354Z,101476.39
2019-02-12T23:17:34.655Z,101481.43
2019-02-12T23:20:01.284Z,101486.22
2019-02-12T23:22:29.089Z,101481.37
2019-02-12T23:24:55.668Z,101484.73
2019-02-12T23:27:22.239Z,101484.41
2019-02-12T23:29:48.804Z,101491.37
2019-02-12T23:32:15.405Z,101484.76
2019-02-12T23:34:42.291Z,101500.06
2019-02-12T23:37:08.873Z,101485.95
2019-02-12T23:39:35.456Z,101484.56
2019-02-12T23:42:01.820Z,101483.58
2019-02-12T23:44:28.154Z,101487.98
2019-02-12T23:46:54.710Z,101494.64
2019-02-12T23:49:21.269Z,101500.65
2019-02-12T23:51:47.592Z,101493.22
2019-02-12T23:54:14.176Z,101495.75
2019-02-12T23:56:40.518Z,101499.71
2019-02-12T23:59:07.182Z,101488.34
